Etusivu
METAR-TAF:

METAR-TAF

Lentoasemat :

Traian Vuian kansainvälinen lentoasema

Timișoara, Romania

Leveyspiiri: 45-46N, Pituuspiiri: 021-15E, korkeus merenpinnasta: 86 m

Tämänhetkinen sää

Tämä raportti tehtiin 43 minuuttia sitten, kello 19.00 UTC
Tuuli 4 kn pohjoisesta
Lämpötila 9°C
Kosteus 46%
Ilmanpaine 1024 hPa
Näkyvyys 10 km tai enemmän
ei pilviä alle 1500 m:ssä eikä cumulonimbus-pilviä

METAR: LRTR 081900Z 36004KT CAVOK 09/M02 Q1024

Aika: 22:43 (19:43 UTC)

Sääennuste

Tämä raportti tehtiin 2 tuntia ja 43 minuuttia sitten, kello 17.00 UTC
Ennuste voimassa 08. päivästä klo 18 UTC - 09. päivään klo 18 UTC
Tuuli 4 kn eri suunnista
Näkyvyys 10 km tai enemmän
ei pilviä alle 1500 m:ssä eikä cumulonimbus-pilviä

TAF: LRTR 081700Z 0818/0918 VRB04KT CAVOK

Säähavainnot ja -ennusteet yli 4000 lentoasemalta (METAR- ja TAF-raportit).

Käytössä olevat sääasemat on merkitty karttaan keltaisilla ja punaisilla pisteillä.

Aseta hiiri pisteen päälle nähdäksesi sääaseman nimen.

Klikkaa sitten nähdäksesi säähavainnot ja -ennusteet.

Kartan vaihtaminen: klikkaa mustalla rastilla varustettuja vihreitä pisteitä, niin voit zoomata sisään; viivalla varustettua vihreää pistettä, niin voit zoomata ulos tai vihreitä nuolia, niin pääset viereisille kartoille.


METAR-TAF: